sensor_id;sensor_type;location;lat;lon;timestamp;temperature;humidity
18581;DHT22;9420;50.876;7.012;2023-04-03T00:00:55;4.40;99.90
18581;DHT22;9420;50.876;7.012;2023-04-03T00:03:23;4.50;99.90
18581;DHT22;9420;50.876;7.012;2023-04-03T00:05:50;4.50;99.90
18581;DHT22;9420;50.876;7.012;2023-04-03T00:08:18;4.50;99.90
18581;DHT22;9420;50.876;7.012;2023-04-03T00:10:46;4.40;99.90
18581;DHT22;9420;50.876;7.012;2023-04-03T00:13:14;4.40;99.90
18581;DHT22;9420;50.876;7.012;2023-04-03T00:15:41;4.40;99.90
18581;DHT22;9420;50.876;7.012;2023-04-03T00:18:09;4.30;99.90
18581;DHT22;9420;50.876;7.012;2023-04-03T00:20:36;4.30;99.90
18581;DHT22;9420;50.876;7.012;2023-04-03T00:23:03;4.30;99.90
18581;DHT22;9420;50.876;7.012;2023-04-03T00:25:32;4.20;99.90
18581;DHT22;9420;50.876;7.012;2023-04-03T00:27:59;4.10;99.90
18581;DHT22;9420;50.876;7.012;2023-04-03T00:30:27;4.10;99.90
18581;DHT22;9420;50.876;7.012;2023-04-03T00:32:54;4.10;99.90
18581;DHT22;9420;50.876;7.012;2023-04-03T00:35:22;4.10;99.90
18581;DHT22;9420;50.876;7.012;2023-04-03T00:37:51;4.10;99.90
18581;DHT22;9420;50.876;7.012;2023-04-03T00:40:19;4.10;99.90
18581;DHT22;9420;50.876;7.012;2023-04-03T00:42:54;4.10;99.90
18581;DHT22;9420;50.876;7.012;2023-04-03T00:45:34;4.10;99.90
18581;DHT22;9420;50.876;7.012;2023-04-03T00:48:04;4.00;99.90
18581;DHT22;9420;50.876;7.012;2023-04-03T00:50:36;4.00;99.90
18581;DHT22;9420;50.876;7.012;2023-04-03T00:53:07;3.90;99.90
18581;DHT22;9420;50.876;7.012;2023-04-03T00:55:38;3.90;99.90
18581;DHT22;9420;50.876;7.012;2023-04-03T00:58:07;3.90;99.90
18581;DHT22;9420;50.876;7.012;2023-04-03T01:00:37;3.90;99.90
18581;DHT22;9420;50.876;7.012;2023-04-03T01:03:08;3.90;99.90
18581;DHT22;9420;50.876;7.012;2023-04-03T01:05:35;3.90;99.90
18581;DHT22;9420;50.876;7.012;2023-04-03T01:08:03;3.90;99.90
18581;DHT22;9420;50.876;7.012;2023-04-03T01:10:30;3.80;99.90
18581;DHT22;9420;50.876;7.012;2023-04-03T01:12:57;3.70;99.90
18581;DHT22;9420;50.876;7.012;2023-04-03T01:15:28;3.60;99.90
18581;DHT22;9420;50.876;7.012;2023-04-03T01:17:58;3.40;99.90
18581;DHT22;9420;50.876;7.012;2023-04-03T01:24:02;3.30;99.90
18581;DHT22;9420;50.876;7.012;2023-04-03T01:26:38;3.30;99.90
18581;DHT22;9420;50.876;7.012;2023-04-03T01:29:06;3.40;99.90
18581;DHT22;9420;50.876;7.012;2023-04-03T01:31:45;3.30;99.90
18581;DHT22;9420;50.876;7.012;2023-04-03T01:34:16;3.30;99.90
18581;DHT22;9420;50.876;7.012;2023-04-03T01:36:43;3.30;99.90
18581;DHT22;9420;50.876;7.012;2023-04-03T01:39:11;3.20;99.90
18581;DHT22;9420;50.876;7.012;2023-04-03T01:41:38;3.10;99.90
18581;DHT22;9420;50.876;7.012;2023-04-03T01:44:05;3.00;99.90
18581;DHT22;9420;50.876;7.012;2023-04-03T01:46:34;3.10;99.90
18581;DHT22;9420;50.876;7.012;2023-04-03T01:49:03;3.10;99.90
18581;DHT22;9420;50.876;7.012;2023-04-03T01:51:30;3.10;99.90
18581;DHT22;9420;50.876;7.012;2023-04-03T01:53:58;3.10;99.90
18581;DHT22;9420;50.876;7.012;2023-04-03T01:56:25;3.10;99.90
18581;DHT22;9420;50.876;7.012;2023-04-03T01:58:52;3.10;99.90
18581;DHT22;9420;50.876;7.012;2023-04-03T02:01:19;3.10;99.90
18581;DHT22;9420;50.876;7.012;2023-04-03T02:03:46;3.10;99.90
18581;DHT22;9420;50.876;7.012;2023-04-03T02:06:15;3.10;99.90
18581;DHT22;9420;50.876;7.012;2023-04-03T02:08:42;3.10;99.90
18581;DHT22;9420;50.876;7.012;2023-04-03T02:11:09;3.00;99.90
18581;DHT22;9420;50.876;7.012;2023-04-03T02:13:36;3.10;99.90
18581;DHT22;9420;50.876;7.012;2023-04-03T02:16:07;3.10;99.90
18581;DHT22;9420;50.876;7.012;2023-04-03T02:18:35;3.10;99.90
18581;DHT22;9420;50.876;7.012;2023-04-03T02:21:02;3.10;99.90
18581;DHT22;9420;50.876;7.012;2023-04-03T02:23:31;3.00;99.90
18581;DHT22;9420;50.876;7.012;2023-04-03T02:26:07;2.90;99.90
18581;DHT22;9420;50.876;7.012;2023-04-03T02:28:35;2.90;99.90
18581;DHT22;9420;50.876;7.012;2023-04-03T02:31:03;2.90;99.90
18581;DHT22;9420;50.876;7.012;2023-04-03T02:33:32;2.90;99.90
18581;DHT22;9420;50.876;7.012;2023-04-03T02:35:59;2.80;99.90
18581;DHT22;9420;50.876;7.012;2023-04-03T02:38:26;2.80;99.90
18581;DHT22;9420;50.876;7.012;2023-04-03T02:41:00;2.70;99.90
18581;DHT22;9420;50.876;7.012;2023-04-03T02:43:27;2.70;99.90
18581;DHT22;9420;50.876;7.012;2023-04-03T02:45:54;2.60;99.90
18581;DHT22;9420;50.876;7.012;2023-04-03T02:48:21;2.60;99.90
18581;DHT22;9420;50.876;7.012;2023-04-03T02:50:49;2.60;99.90
18581;DHT22;9420;50.876;7.012;2023-04-03T02:53:16;2.60;99.90
18581;DHT22;9420;50.876;7.012;2023-04-03T02:55:44;2.60;99.90
18581;DHT22;9420;50.876;7.012;2023-04-03T02:58:12;2.50;99.90
18581;DHT22;9420;50.876;7.012;2023-04-03T03:00:39;2.60;99.90
18581;DHT22;9420;50.876;7.012;2023-04-03T03:03:06;2.60;99.90
18581;DHT22;9420;50.876;7.012;2023-04-03T03:05:34;2.50;99.90
18581;DHT22;9420;50.876;7.012;2023-04-03T03:08:01;2.50;99.90
18581;DHT22;9420;50.876;7.012;2023-04-03T03:10:28;2.50;99.90
18581;DHT22;9420;50.876;7.012;2023-04-03T03:12:55;2.50;99.90
18581;DHT22;9420;50.876;7.012;2023-04-03T03:15:24;2.40;99.90
18581;DHT22;9420;50.876;7.012;2023-04-03T03:17:51;2.40;99.90
18581;DHT22;9420;50.876;7.012;2023-04-03T03:20:19;2.30;99.90
18581;DHT22;9420;50.876;7.012;2023-04-03T03:22:46;2.30;99.90
18581;DHT22;9420;50.876;7.012;2023-04-03T03:25:14;2.20;99.90
18581;DHT22;9420;50.876;7.012;2023-04-03T03:27:41;2.30;99.90
18581;DHT22;9420;50.876;7.012;2023-04-03T03:30:08;2.20;99.90
18581;DHT22;9420;50.876;7.012;2023-04-03T03:32:37;2.20;99.90
18581;DHT22;9420;50.876;7.012;2023-04-03T03:35:05;2.20;99.90
18581;DHT22;9420;50.876;7.012;2023-04-03T03:37:32;2.20;99.90
18581;DHT22;9420;50.876;7.012;2023-04-03T03:40:00;2.20;99.90
18581;DHT22;9420;50.876;7.012;2023-04-03T03:42:27;2.10;99.90
18581;DHT22;9420;50.876;7.012;2023-04-03T03:44:54;2.10;99.90
18581;DHT22;9420;50.876;7.012;2023-04-03T03:47:20;2.10;99.90
18581;DHT22;9420;50.876;7.012;2023-04-03T03:49:49;2.10;99.90
18581;DHT22;9420;50.876;7.012;2023-04-03T03:52:16;2.00;99.90
18581;DHT22;9420;50.876;7.012;2023-04-03T03:54:43;1.90;99.90
18581;DHT22;9420;50.876;7.012;2023-04-03T03:57:10;2.00;99.90
18581;DHT22;9420;50.876;7.012;2023-04-03T03:59:37;2.00;99.90
18581;DHT22;9420;50.876;7.012;2023-04-03T04:02:06;1.90;99.90
18581;DHT22;9420;50.876;7.012;2023-04-03T04:04:33;1.90;99.90
18581;DHT22;9420;50.876;7.012;2023-04-03T04:07:01;1.90;99.90
18581;DHT22;9420;50.876;7.012;2023-04-03T04:09:29;1.80;99.90
18581;DHT22;9420;50.876;7.012;2023-04-03T04:11:56;1.80;99.90
18581;DHT22;9420;50.876;7.012;2023-04-03T04:14:23;1.70;99.90
18581;DHT22;9420;50.876;7.012;2023-04-03T04:16:50;1.80;99.90
18581;DHT22;9420;50.876;7.012;2023-04-03T04:19:17;1.70;99.90
18581;DHT22;9420;50.876;7.012;2023-04-03T04:21:44;1.70;99.90
18581;DHT22;9420;50.876;7.012;2023-04-03T04:24:13;1.50;99.90
18581;DHT22;9420;50.876;7.012;2023-04-03T04:26:40;1.60;99.90
18581;DHT22;9420;50.876;7.012;2023-04-03T04:29:08;1.50;99.90
18581;DHT22;9420;50.876;7.012;2023-04-03T04:31:37;1.50;99.90
18581;DHT22;9420;50.876;7.012;2023-04-03T04:34:04;1.40;99.90
18581;DHT22;9420;50.876;7.012;2023-04-03T04:36:31;1.40;99.90
18581;DHT22;9420;50.876;7.012;2023-04-03T04:38:58;1.50;99.90
18581;DHT22;9420;50.876;7.012;2023-04-03T04:41:27;1.50;99.90
18581;DHT22;9420;50.876;7.012;2023-04-03T04:43:54;1.50;99.90
18581;DHT22;9420;50.876;7.012;2023-04-03T04:46:21;1.50;99.90
18581;DHT22;9420;50.876;7.012;2023-04-03T04:48:48;1.50;99.90
18581;DHT22;9420;50.876;7.012;2023-04-03T04:51:16;1.50;99.90
18581;DHT22;9420;50.876;7.012;2023-04-03T04:53:43;1.50;99.90
18581;DHT22;9420;50.876;7.012;2023-04-03T04:56:11;1.40;99.90
18581;DHT22;9420;50.876;7.012;2023-04-03T04:58:40;1.50;99.90
18581;DHT22;9420;50.876;7.012;2023-04-03T05:01:08;1.50;99.90
18581;DHT22;9420;50.876;7.012;2023-04-03T05:03:37;1.60;99.90
18581;DHT22;9420;50.876;7.012;2023-04-03T05:06:04;1.60;99.90
18581;DHT22;9420;50.876;7.012;2023-04-03T05:08:31;1.60;99.90
18581;DHT22;9420;50.876;7.012;2023-04-03T05:10:58;1.70;99.90
18581;DHT22;9420;50.876;7.012;2023-04-03T05:13:25;1.70;99.90
18581;DHT22;9420;50.876;7.012;2023-04-03T05:15:54;1.80;99.90
18581;DHT22;9420;50.876;7.012;2023-04-03T05:18:21;1.80;99.90
18581;DHT22;9420;50.876;7.012;2023-04-03T05:20:48;1.90;99.90
18581;DHT22;9420;50.876;7.012;2023-04-03T05:23:16;1.90;99.90
18581;DHT22;9420;50.876;7.012;2023-04-03T05:25:44;1.90;99.90
18581;DHT22;9420;50.876;7.012;2023-04-03T05:28:12;2.00;99.90
18581;DHT22;9420;50.876;7.012;2023-04-03T05:30:40;2.00;99.90
18581;DHT22;9420;50.876;7.012;2023-04-03T05:33:09;2.00;99.90
18581;DHT22;9420;50.876;7.012;2023-04-03T05:35:36;2.00;99.90
18581;DHT22;9420;50.876;7.012;2023-04-03T05:38:06;2.00;99.90
18581;DHT22;9420;50.876;7.012;2023-04-03T05:40:33;2.00;99.90
18581;DHT22;9420;50.876;7.012;2023-04-03T05:43:00;2.10;99.90
18581;DHT22;9420;50.876;7.012;2023-04-03T05:45:28;2.10;99.90
18581;DHT22;9420;50.876;7.012;2023-04-03T05:47:55;2.20;99.90
18581;DHT22;9420;50.876;7.012;2023-04-03T05:50:24;2.20;99.90
18581;DHT22;9420;50.876;7.012;2023-04-03T05:52:53;2.30;99.90
18581;DHT22;9420;50.876;7.012;2023-04-03T05:55:23;2.40;99.90
18581;DHT22;9420;50.876;7.012;2023-04-03T05:57:51;2.50;99.90
18581;DHT22;9420;50.876;7.012;2023-04-03T06:00:18;2.60;99.90
18581;DHT22;9420;50.876;7.012;2023-04-03T06:02:46;2.60;99.90
18581;DHT22;9420;50.876;7.012;2023-04-03T06:05:13;2.70;99.90
18581;DHT22;9420;50.876;7.012;2023-04-03T06:07:42;2.70;99.90
18581;DHT22;9420;50.876;7.012;2023-04-03T06:10:11;2.80;99.90
18581;DHT22;9420;50.876;7.012;2023-04-03T06:12:38;2.90;99.90
18581;DHT22;9420;50.876;7.012;2023-04-03T06:15:07;3.00;99.90
18581;DHT22;9420;50.876;7.012;2023-04-03T06:17:35;3.00;99.90
18581;DHT22;9420;50.876;7.012;2023-04-03T06:20:03;3.10;99.90
18581;DHT22;9420;50.876;7.012;2023-04-03T06:22:31;3.20;99.90
18581;DHT22;9420;50.876;7.012;2023-04-03T06:24:59;3.20;99.90
18581;DHT22;9420;50.876;7.012;2023-04-03T06:27:26;3.30;99.90
18581;DHT22;9420;50.876;7.012;2023-04-03T06:29:54;3.30;99.90
18581;DHT22;9420;50.876;7.012;2023-04-03T06:32:21;3.40;99.90
18581;DHT22;9420;50.876;7.012;2023-04-03T06:34:49;3.50;99.90
18581;DHT22;9420;50.876;7.012;2023-04-03T06:37:17;3.50;99.90
18581;DHT22;9420;50.876;7.012;2023-04-03T06:39:46;3.60;99.90
18581;DHT22;9420;50.876;7.012;2023-04-03T06:42:14;3.70;99.90
18581;DHT22;9420;50.876;7.012;2023-04-03T06:44:41;3.80;99.90
18581;DHT22;9420;50.876;7.012;2023-04-03T06:47:10;3.80;99.90
18581;DHT22;9420;50.876;7.012;2023-04-03T06:49:39;3.90;99.90
18581;DHT22;9420;50.876;7.012;2023-04-03T06:52:07;4.00;99.90
18581;DHT22;9420;50.876;7.012;2023-04-03T06:54:34;4.10;99.90
18581;DHT22;9420;50.876;7.012;2023-04-03T06:57:02;4.10;99.90
18581;DHT22;9420;50.876;7.012;2023-04-03T06:59:31;4.20;99.90
18581;DHT22;9420;50.876;7.012;2023-04-03T07:01:58;4.20;99.90
18581;DHT22;9420;50.876;7.012;2023-04-03T07:04:25;4.30;99.90
18581;DHT22;9420;50.876;7.012;2023-04-03T07:06:52;4.40;99.90
18581;DHT22;9420;50.876;7.012;2023-04-03T07:09:19;4.40;99.90
18581;DHT22;9420;50.876;7.012;2023-04-03T07:11:46;4.50;99.90
18581;DHT22;9420;50.876;7.012;2023-04-03T07:14:14;4.60;99.90
18581;DHT22;9420;50.876;7.012;2023-04-03T07:16:43;4.70;99.90
18581;DHT22;9420;50.876;7.012;2023-04-03T07:19:10;4.70;99.90
18581;DHT22;9420;50.876;7.012;2023-04-03T07:21:37;4.80;99.90
18581;DHT22;9420;50.876;7.012;2023-04-03T07:24:06;4.90;99.90
18581;DHT22;9420;50.876;7.012;2023-04-03T07:26:33;4.90;99.90
18581;DHT22;9420;50.876;7.012;2023-04-03T07:29:00;5.00;99.90
18581;DHT22;9420;50.876;7.012;2023-04-03T07:31:28;5.10;99.90
18581;DHT22;9420;50.876;7.012;2023-04-03T07:33:56;5.20;99.90
18581;DHT22;9420;50.876;7.012;2023-04-03T07:36:23;5.20;99.90
18581;DHT22;9420;50.876;7.012;2023-04-03T07:38:53;5.30;99.90
18581;DHT22;9420;50.876;7.012;2023-04-03T07:41:20;5.30;99.90
18581;DHT22;9420;50.876;7.012;2023-04-03T07:43:48;5.50;99.90
18581;DHT22;9420;50.876;7.012;2023-04-03T07:46:16;5.50;99.90
18581;DHT22;9420;50.876;7.012;2023-04-03T07:48:44;5.60;99.90
18581;DHT22;9420;50.876;7.012;2023-04-03T07:51:14;5.70;99.90
18581;DHT22;9420;50.876;7.012;2023-04-03T07:53:41;5.80;99.90
18581;DHT22;9420;50.876;7.012;2023-04-03T07:56:09;5.70;99.90
18581;DHT22;9420;50.876;7.012;2023-04-03T07:58:36;5.70;99.90
18581;DHT22;9420;50.876;7.012;2023-04-03T08:01:04;5.80;99.90
18581;DHT22;9420;50.876;7.012;2023-04-03T08:03:31;5.90;99.90
18581;DHT22;9420;50.876;7.012;2023-04-03T08:06:02;6.00;99.90
18581;DHT22;9420;50.876;7.012;2023-04-03T08:08:32;6.10;99.90
18581;DHT22;9420;50.876;7.012;2023-04-03T08:11:02;6.20;99.90
18581;DHT22;9420;50.876;7.012;2023-04-03T08:13:32;6.40;99.90
18581;DHT22;9420;50.876;7.012;2023-04-03T08:16:08;6.40;99.90
18581;DHT22;9420;50.876;7.012;2023-04-03T08:18:38;6.50;99.90
18581;DHT22;9420;50.876;7.012;2023-04-03T08:21:06;6.60;99.90
18581;DHT22;9420;50.876;7.012;2023-04-03T08:23:36;6.30;99.90
18581;DHT22;9420;50.876;7.012;2023-04-03T08:26:07;6.40;99.90
18581;DHT22;9420;50.876;7.012;2023-04-03T08:28:35;6.50;99.90
18581;DHT22;9420;50.876;7.012;2023-04-03T08:31:04;6.50;99.40
18581;DHT22;9420;50.876;7.012;2023-04-03T08:33:33;6.50;99.90
18581;DHT22;9420;50.876;7.012;2023-04-03T08:36:02;6.50;99.90
18581;DHT22;9420;50.876;7.012;2023-04-03T08:38:31;6.50;99.90
18581;DHT22;9420;50.876;7.012;2023-04-03T08:41:14;6.50;98.80
18581;DHT22;9420;50.876;7.012;2023-04-03T08:43:56;6.50;99.90
18581;DHT22;9420;50.876;7.012;2023-04-03T08:46:38;6.50;99.90
18581;DHT22;9420;50.876;7.012;2023-04-03T08:49:21;6.50;99.90
18581;DHT22;9420;50.876;7.012;2023-04-03T08:51:53;6.60;99.90
18581;DHT22;9420;50.876;7.012;2023-04-03T08:54:28;6.60;99.90
18581;DHT22;9420;50.876;7.012;2023-04-03T08:57:02;6.70;99.90
18581;DHT22;9420;50.876;7.012;2023-04-03T08:59:34;6.60;99.90
18581;DHT22;9420;50.876;7.012;2023-04-03T09:02:16;6.60;99.90
18581;DHT22;9420;50.876;7.012;2023-04-03T09:04:52;6.70;99.90
18581;DHT22;9420;50.876;7.012;2023-04-03T09:07:24;6.70;99.90
18581;DHT22;9420;50.876;7.012;2023-04-03T09:10:00;6.80;99.90
18581;DHT22;9420;50.876;7.012;2023-04-03T09:12:34;6.90;99.90
18581;DHT22;9420;50.876;7.012;2023-04-03T09:15:13;7.00;97.60
18581;DHT22;9420;50.876;7.012;2023-04-03T09:17:53;7.00;99.60
18581;DHT22;9420;50.876;7.012;2023-04-03T09:20:34;7.00;95.70
18581;DHT22;9420;50.876;7.012;2023-04-03T09:23:15;7.00;94.70
18581;DHT22;9420;50.876;7.012;2023-04-03T09:25:51;7.00;90.80
18581;DHT22;9420;50.876;7.012;2023-04-03T09:28:24;7.10;92.00
18581;DHT22;9420;50.876;7.012;2023-04-03T09:30:52;7.20;92.70
18581;DHT22;9420;50.876;7.012;2023-04-03T09:33:20;7.40;92.00
18581;DHT22;9420;50.876;7.012;2023-04-03T09:35:50;7.40;80.70
18581;DHT22;9420;50.876;7.012;2023-04-03T09:38:19;7.40;80.20
18581;DHT22;9420;50.876;7.012;2023-04-03T09:40:49;7.40;83.10
18581;DHT22;9420;50.876;7.012;2023-04-03T09:43:28;7.50;76.90
18581;DHT22;9420;50.876;7.012;2023-04-03T09:46:16;7.50;75.20
18581;DHT22;9420;50.876;7.012;2023-04-03T09:48:52;7.60;74.60
18581;DHT22;9420;50.876;7.012;2023-04-03T09:51:26;7.60;81.70
18581;DHT22;9420;50.876;7.012;2023-04-03T09:53:55;7.80;80.00
18581;DHT22;9420;50.876;7.012;2023-04-03T09:56:24;7.80;73.10
18581;DHT22;9420;50.876;7.012;2023-04-03T09:59:12;7.80;72.00
18581;DHT22;9420;50.876;7.012;2023-04-03T10:01:43;8.00;70.20
18581;DHT22;9420;50.876;7.012;2023-04-03T10:04:24;8.10;72.10
18581;DHT22;9420;50.876;7.012;2023-04-03T10:06:53;8.20;72.00
18581;DHT22;9420;50.876;7.012;2023-04-03T10:09:23;8.40;74.00
18581;DHT22;9420;50.876;7.012;2023-04-03T10:12:00;8.40;58.60
18581;DHT22;9420;50.876;7.012;2023-04-03T10:14:32;8.50;59.00
18581;DHT22;9420;50.876;7.012;2023-04-03T10:17:11;8.70;56.40
18581;DHT22;9420;50.876;7.012;2023-04-03T10:19:47;8.90;57.60
18581;DHT22;9420;50.876;7.012;2023-04-03T10:22:24;9.30;53.80
18581;DHT22;9420;50.876;7.012;2023-04-03T10:25:04;9.30;46.90
18581;DHT22;9420;50.876;7.012;2023-04-03T10:27:51;9.60;43.10
18581;DHT22;9420;50.876;7.012;2023-04-03T10:30:34;10.10;33.80
18581;DHT22;9420;50.876;7.012;2023-04-03T10:33:26;10.20;27.00
18581;DHT22;9420;50.876;7.012;2023-04-03T10:36:12;10.60;18.40
18581;DHT22;9420;50.876;7.012;2023-04-03T10:38:55;10.80;20.30
18581;DHT22;9420;50.876;7.012;2023-04-03T10:41:37;11.00;21.40
18581;DHT22;9420;50.876;7.012;2023-04-03T10:44:20;11.30;24.60
18581;DHT22;9420;50.876;7.012;2023-04-03T10:47:10;11.80;24.00
18581;DHT22;9420;50.876;7.012;2023-04-03T10:49:52;11.60;1.00
18581;DHT22;9420;50.876;7.012;2023-04-03T10:52:33;11.60;1.00
18581;DHT22;9420;50.876;7.012;2023-04-03T10:55:18;12.30;1.00
18581;DHT22;9420;50.876;7.012;2023-04-03T10:57:57;12.50;1.00
18581;DHT22;9420;50.876;7.012;2023-04-03T11:00:31;12.40;1.00
18581;DHT22;9420;50.876;7.012;2023-04-03T11:03:07;12.60;1.00
18581;DHT22;9420;50.876;7.012;2023-04-03T11:05:42;13.00;1.00
18581;DHT22;9420;50.876;7.012;2023-04-03T11:08:17;13.10;1.00
18581;DHT22;9420;50.876;7.012;2023-04-03T11:10:56;13.40;1.00
18581;DHT22;9420;50.876;7.012;2023-04-03T11:13:33;13.70;1.00
18581;DHT22;9420;50.876;7.012;2023-04-03T11:16:04;13.80;1.00
18581;DHT22;9420;50.876;7.012;2023-04-03T11:18:39;13.80;1.00
18581;DHT22;9420;50.876;7.012;2023-04-03T11:21:16;14.10;1.00
18581;DHT22;9420;50.876;7.012;2023-04-03T11:23:47;14.60;1.00
18581;DHT22;9420;50.876;7.012;2023-04-03T11:26:18;15.00;1.00
18581;DHT22;9420;50.876;7.012;2023-04-03T11:28:53;15.50;1.00
18581;DHT22;9420;50.876;7.012;2023-04-03T11:31:35;15.70;1.00
18581;DHT22;9420;50.876;7.012;2023-04-03T11:34:22;16.10;1.00
18581;DHT22;9420;50.876;7.012;2023-04-03T11:37:00;15.90;1.00
18581;DHT22;9420;50.876;7.012;2023-04-03T11:39:32;15.90;1.00
18581;DHT22;9420;50.876;7.012;2023-04-03T11:42:15;16.50;1.00
18581;DHT22;9420;50.876;7.012;2023-04-03T11:44:48;16.70;1.00
18581;DHT22;9420;50.876;7.012;2023-04-03T11:47:45;16.80;1.00
18581;DHT22;9420;50.876;7.012;2023-04-03T11:50:45;16.50;1.00
18581;DHT22;9420;50.876;7.012;2023-04-03T11:53:34;17.00;1.00
18581;DHT22;9420;50.876;7.012;2023-04-03T11:56:06;17.50;1.00
18581;DHT22;9420;50.876;7.012;2023-04-03T11:59:22;17.60;1.00
18581;DHT22;9420;50.876;7.012;2023-04-03T12:01:52;18.00;1.00
18581;DHT22;9420;50.876;7.012;2023-04-03T12:04:22;17.70;1.00
18581;DHT22;9420;50.876;7.012;2023-04-03T12:07:12;17.90;1.00
18581;DHT22;9420;50.876;7.012;2023-04-03T12:10:14;17.70;1.00
18581;DHT22;9420;50.876;7.012;2023-04-03T12:12:56;17.90;1.00
18581;DHT22;9420;50.876;7.012;2023-04-03T12:15:54;17.80;1.00
18581;DHT22;9420;50.876;7.012;2023-04-03T12:18:56;18.30;1.00
18581;DHT22;9420;50.876;7.012;2023-04-03T12:24:39;18.70;1.00
18581;DHT22;9420;50.876;7.012;2023-04-03T12:27:25;17.90;1.00
18581;DHT22;9420;50.876;7.012;2023-04-03T12:30:01;18.40;1.00
18581;DHT22;9420;50.876;7.012;2023-04-03T12:33:01;18.10;1.00
18581;DHT22;9420;50.876;7.012;2023-04-03T12:35:40;18.80;1.00
18581;DHT22;9420;50.876;7.012;2023-04-03T12:41:45;19.20;1.00
18581;DHT22;9420;50.876;7.012;2023-04-03T12:44:38;19.10;1.00
18581;DHT22;9420;50.876;7.012;2023-04-03T12:47:27;19.60;1.00
18581;DHT22;9420;50.876;7.012;2023-04-03T12:49:59;19.80;1.00
18581;DHT22;9420;50.876;7.012;2023-04-03T12:52:33;19.70;1.00
18581;DHT22;9420;50.876;7.012;2023-04-03T12:55:14;19.70;1.00
18581;DHT22;9420;50.876;7.012;2023-04-03T12:57:43;19.60;1.00
18581;DHT22;9420;50.876;7.012;2023-04-03T13:00:29;19.70;1.00
18581;DHT22;9420;50.876;7.012;2023-04-03T13:03:01;19.50;1.00
18581;DHT22;9420;50.876;7.012;2023-04-03T13:05:32;19.40;1.00
18581;DHT22;9420;50.876;7.012;2023-04-03T13:08:03;19.50;1.00
18581;DHT22;9420;50.876;7.012;2023-04-03T13:10:49;19.80;1.00
18581;DHT22;9420;50.876;7.012;2023-04-03T13:13:19;19.70;1.00
18581;DHT22;9420;50.876;7.012;2023-04-03T13:15:49;19.90;1.00
18581;DHT22;9420;50.876;7.012;2023-04-03T13:18:25;20.40;1.00
18581;DHT22;9420;50.876;7.012;2023-04-03T13:21:00;20.60;1.00
18581;DHT22;9420;50.876;7.012;2023-04-03T13:23:32;20.50;1.00
18581;DHT22;9420;50.876;7.012;2023-04-03T13:26:04;19.70;1.00
18581;DHT22;9420;50.876;7.012;2023-04-03T13:28:33;19.60;1.00
18581;DHT22;9420;50.876;7.012;2023-04-03T13:31:07;20.40;1.00
18581;DHT22;9420;50.876;7.012;2023-04-03T13:33:54;20.50;1.00
18581;DHT22;9420;50.876;7.012;2023-04-03T13:36:33;20.70;1.00
18581;DHT22;9420;50.876;7.012;2023-04-03T13:39:05;21.30;1.00
18581;DHT22;9420;50.876;7.012;2023-04-03T13:41:37;21.30;1.00
18581;DHT22;9420;50.876;7.012;2023-04-03T13:44:26;21.60;1.00
18581;DHT22;9420;50.876;7.012;2023-04-03T13:46:57;21.80;1.00
18581;DHT22;9420;50.876;7.012;2023-04-03T13:49:33;21.70;1.00
18581;DHT22;9420;50.876;7.012;2023-04-03T13:52:17;22.00;1.00
18581;DHT22;9420;50.876;7.012;2023-04-03T13:54:52;22.20;1.00
18581;DHT22;9420;50.876;7.012;2023-04-03T13:57:23;21.40;1.00
18581;DHT22;9420;50.876;7.012;2023-04-03T13:59:51;21.30;1.00
18581;DHT22;9420;50.876;7.012;2023-04-03T14:02:20;21.50;1.00
18581;DHT22;9420;50.876;7.012;2023-04-03T14:04:53;21.40;1.00
18581;DHT22;9420;50.876;7.012;2023-04-03T14:07:26;21.10;1.00
18581;DHT22;9420;50.876;7.012;2023-04-03T14:09:53;20.90;1.00
18581;DHT22;9420;50.876;7.012;2023-04-03T14:12:25;21.00;1.00
18581;DHT22;9420;50.876;7.012;2023-04-03T14:14:55;21.30;1.00
18581;DHT22;9420;50.876;7.012;2023-04-03T14:17:25;21.40;1.00
18581;DHT22;9420;50.876;7.012;2023-04-03T14:19:55;21.40;1.00
18581;DHT22;9420;50.876;7.012;2023-04-03T14:22:26;21.20;1.00
18581;DHT22;9420;50.876;7.012;2023-04-03T14:24:55;21.70;1.00
18581;DHT22;9420;50.876;7.012;2023-04-03T14:27:24;21.20;1.00
18581;DHT22;9420;50.876;7.012;2023-04-03T14:29:55;21.00;1.00
18581;DHT22;9420;50.876;7.012;2023-04-03T14:32:25;21.30;1.00
18581;DHT22;9420;50.876;7.012;2023-04-03T14:34:54;21.30;1.00
18581;DHT22;9420;50.876;7.012;2023-04-03T14:37:24;20.90;1.00
18581;DHT22;9420;50.876;7.012;2023-04-03T14:39:53;21.30;1.00
18581;DHT22;9420;50.876;7.012;2023-04-03T14:42:24;21.80;1.00
18581;DHT22;9420;50.876;7.012;2023-04-03T14:44:53;22.00;1.00
18581;DHT22;9420;50.876;7.012;2023-04-03T14:47:23;22.40;1.00
18581;DHT22;9420;50.876;7.012;2023-04-03T14:49:54;22.20;1.00
18581;DHT22;9420;50.876;7.012;2023-04-03T14:52:23;21.90;1.00
18581;DHT22;9420;50.876;7.012;2023-04-03T14:54:53;21.60;1.00
18581;DHT22;9420;50.876;7.012;2023-04-03T14:57:24;21.30;1.00
18581;DHT22;9420;50.876;7.012;2023-04-03T14:59:52;21.00;1.00
18581;DHT22;9420;50.876;7.012;2023-04-03T15:02:29;21.10;1.00
18581;DHT22;9420;50.876;7.012;2023-04-03T15:04:59;21.50;1.00
18581;DHT22;9420;50.876;7.012;2023-04-03T15:07:30;21.40;1.00
18581;DHT22;9420;50.876;7.012;2023-04-03T15:10:02;21.40;1.00
18581;DHT22;9420;50.876;7.012;2023-04-03T15:12:41;20.90;1.00
18581;DHT22;9420;50.876;7.012;2023-04-03T15:15:09;21.60;1.00
18581;DHT22;9420;50.876;7.012;2023-04-03T15:17:37;21.80;1.00
18581;DHT22;9420;50.876;7.012;2023-04-03T15:20:13;21.20;1.00
18581;DHT22;9420;50.876;7.012;2023-04-03T15:22:41;21.60;1.00
18581;DHT22;9420;50.876;7.012;2023-04-03T15:25:09;21.60;1.00
18581;DHT22;9420;50.876;7.012;2023-04-03T15:27:36;21.50;1.00
18581;DHT22;9420;50.876;7.012;2023-04-03T15:30:06;21.10;1.00
18581;DHT22;9420;50.876;7.012;2023-04-03T15:32:35;20.90;1.00
18581;DHT22;9420;50.876;7.012;2023-04-03T15:35:02;20.60;1.00
18581;DHT22;9420;50.876;7.012;2023-04-03T15:37:31;21.30;1.00
18581;DHT22;9420;50.876;7.012;2023-04-03T15:39:58;20.90;1.00
18581;DHT22;9420;50.876;7.012;2023-04-03T15:42:25;20.60;1.00
18581;DHT22;9420;50.876;7.012;2023-04-03T15:44:53;21.00;1.00
18581;DHT22;9420;50.876;7.012;2023-04-03T15:47:20;21.40;1.00
18581;DHT22;9420;50.876;7.012;2023-04-03T15:49:47;21.20;1.00
18581;DHT22;9420;50.876;7.012;2023-04-03T15:52:14;21.20;1.00
18581;DHT22;9420;50.876;7.012;2023-04-03T15:54:42;20.70;1.00
18581;DHT22;9420;50.876;7.012;2023-04-03T15:57:10;20.50;1.00
18581;DHT22;9420;50.876;7.012;2023-04-03T15:59:37;20.10;1.00
18581;DHT22;9420;50.876;7.012;2023-04-03T16:02:05;19.80;1.00
18581;DHT22;9420;50.876;7.012;2023-04-03T16:04:34;19.80;1.00
18581;DHT22;9420;50.876;7.012;2023-04-03T16:07:02;20.10;1.00
18581;DHT22;9420;50.876;7.012;2023-04-03T16:09:31;20.00;1.00
18581;DHT22;9420;50.876;7.012;2023-04-03T16:12:01;19.50;1.00
18581;DHT22;9420;50.876;7.012;2023-04-03T16:14:29;19.30;1.00
18581;DHT22;9420;50.876;7.012;2023-04-03T16:16:57;19.30;1.00
18581;DHT22;9420;50.876;7.012;2023-04-03T16:19:24;18.80;1.00
18581;DHT22;9420;50.876;7.012;2023-04-03T16:21:52;19.00;1.00
18581;DHT22;9420;50.876;7.012;2023-04-03T16:24:20;18.50;1.00
18581;DHT22;9420;50.876;7.012;2023-04-03T16:26:50;17.60;1.00
18581;DHT22;9420;50.876;7.012;2023-04-03T16:29:20;17.90;1.00
18581;DHT22;9420;50.876;7.012;2023-04-03T16:31:47;17.50;1.00
18581;DHT22;9420;50.876;7.012;2023-04-03T16:34:14;17.50;1.00
18581;DHT22;9420;50.876;7.012;2023-04-03T16:36:42;17.10;1.00
18581;DHT22;9420;50.876;7.012;2023-04-03T16:39:09;16.80;1.00